Terminal Aerodrome Forecast
Issued by NWS Wakefield, VA

Home | Current Version | Previous Version | Text Only | Print | Product List | Glossary On
Versions: 1 2 3 4 5 6 7 8 9 10 11 12 13 14 15
000
FTUS41 KAKQ 021720
TAFECG
TAF
KECG 021720Z 0218/0318 19008KT P6SM SCT025 BKN050
      TEMPO 0218/0222 VRB30KT 1SM +TSRA BKN012CB
     FM022200 36008KT P6SM SHRA BKN025 BKN040
     FM030300 03006KT 4SM BR OVC007=

USA.gov is the U.S. government's official web portal to all federal, state and local government web resources and services.